Time;durP1;ratioP1;P1;durP2;ratioP2;P2;SDS_P1;SDS_P2;PMS_P1;PMS_P2;Temp;Humidity;BMP_temperature;BMP_pressure;BME280_temperature;BME280_humidity;BME280_pressure;Samples;Min_cycle;Max_cycle;Signal;HPM_P1;HPM_P2
2023/07/28 00:00:16;;;;;;;4.90;3.50;;;;;;;-140.66;100.00;55571.53;5100810;28;20042;-75
2023/07/28 00:03:02;;;;;;;5.95;3.33;;;;;;;-140.66;100.00;55571.53;5114215;28;20028;-75
2023/07/28 00:05:47;;;;;;;6.38;4.50;;;;;;;-140.66;100.00;55571.53;5114768;28;20411;-75
2023/07/28 00:08:33;;;;;;;5.95;3.92;;;;;;;-140.66;100.00;55571.53;5114157;28;20360;-75
2023/07/28 00:11:19;;;;;;;7.75;3.55;;;;;;;-140.66;100.00;55571.53;5112889;28;20410;-75
2023/07/28 00:14:05;;;;;;;5.85;4.43;;;;;;;-140.66;100.00;55571.53;5098075;28;20016;-76
2023/07/28 00:16:55;;;;;;;5.82;3.38;;;;;;;-140.66;100.00;55571.53;5113797;28;20046;-75
2023/07/28 00:19:40;;;;;;;6.20;4.07;;;;;;;-140.66;100.00;55571.53;5098221;28;20059;-75
2023/07/28 00:22:26;;;;;;;4.15;3.40;;;;;;;-140.66;100.00;55571.53;5100315;28;20024;-75
2023/07/28 00:25:12;;;;;;;4.80;3.85;;;;;;;-140.66;100.00;55571.53;5113969;28;20023;-75
2023/07/28 00:27:57;;;;;;;5.90;3.70;;;;;;;-140.66;100.00;55571.53;5115117;28;20070;-76
2023/07/28 00:30:43;;;;;;;6.43;3.65;;;;;;;-140.66;100.00;55571.53;5113967;28;20028;-74
2023/07/28 00:33:29;;;;;;;5.80;3.83;;;;;;;-140.66;100.00;55571.53;5115064;28;20020;-75
2023/07/28 00:36:15;;;;;;;6.15;4.00;;;;;;;-140.66;100.00;55571.53;5114082;28;20368;-76
2023/07/28 00:39:00;;;;;;;6.72;4.15;;;;;;;-140.66;100.00;55571.53;5098596;28;20368;-76
2023/07/28 00:41:46;;;;;;;18.88;4.07;;;;;;;-140.66;100.00;55571.53;5098374;28;20456;-77
2023/07/28 00:44:32;;;;;;;7.75;3.70;;;;;;;-140.66;100.00;55571.53;5098806;28;20130;-77
2023/07/28 00:47:17;;;;;;;4.97;4.05;;;;;;;-140.66;100.00;55571.53;5113816;28;20070;-74
2023/07/28 00:50:04;;;;;;;4.90;3.65;;;;;;;-140.66;100.00;55571.53;5113446;28;20447;-76
2023/07/28 00:52:50;;;;;;;6.32;3.78;;;;;;;-140.66;100.00;55571.53;5100200;28;20093;-76
2023/07/28 00:55:37;;;;;;;7.75;4.10;;;;;;;-140.66;100.00;55571.53;5104048;28;20016;-74
2023/07/28 00:58:24;;;;;;;4.82;3.78;;;;;;;-140.66;100.00;55571.53;5116508;28;20200;-75
2023/07/28 01:01:09;;;;;;;6.40;4.03;;;;;;;-140.66;100.00;55571.53;5118505;28;20055;-76
2023/07/28 01:03:55;;;;;;;6.45;3.80;;;;;;;-140.66;100.00;55571.53;5117265;28;20385;-76
2023/07/28 01:06:56;;;;;;;6.38;3.70;;;;;;;-140.66;100.00;55571.53;5117051;28;20411;-75
2023/07/28 01:10:01;;;;;;;4.47;3.25;;;;;;;-140.66;100.00;55571.53;5102311;28;20454;-75
2023/07/28 01:12:46;;;;;;;5.97;4.10;;;;;;;-140.66;100.00;55571.53;5101574;28;20444;-76
2023/07/28 01:15:32;;;;;;;5.15;3.53;;;;;;;-140.66;100.00;55571.53;5103013;28;20505;-75
2023/07/28 01:18:18;;;;;;;7.55;4.03;;;;;;;-140.66;100.00;55571.53;5116998;28;20031;-75
2023/07/28 01:21:08;;;;;;;8.45;3.90;;;;;;;-140.66;100.00;55571.53;5116197;28;20052;-74
2023/07/28 01:24:19;;;;;;;5.07;3.80;;;;;;;-140.66;100.00;55571.53;5100892;28;20023;-76
2023/07/28 01:27:07;;;;;;;5.35;3.30;;;;;;;-140.66;100.00;55571.53;5102161;28;20031;-74
2023/07/28 01:29:53;;;;;;;4.38;3.13;;;;;;;-140.66;100.00;55571.53;5117022;28;20027;-74
2023/07/28 01:32:38;;;;;;;6.85;3.60;;;;;;;-140.66;100.00;55571.53;5115696;28;20460;-75
2023/07/28 01:35:25;;;;;;;8.02;4.20;;;;;;;-140.66;100.00;55571.53;5117046;28;20027;-75
2023/07/28 01:38:12;;;;;;;5.00;3.70;;;;;;;-140.66;100.00;55571.53;5116824;28;20035;-74
2023/07/28 01:40:58;;;;;;;4.35;3.65;;;;;;;-140.66;100.00;55571.53;5117307;28;20092;-75
2023/07/28 01:43:44;;;;;;;4.95;3.55;;;;;;;-140.66;100.00;55571.53;5116573;28;20042;-75
2023/07/28 01:46:30;;;;;;;7.82;3.90;;;;;;;-140.66;100.00;55571.53;5102305;28;20023;-75
2023/07/28 01:49:15;;;;;;;5.30;3.53;;;;;;;-140.66;100.00;55571.53;5115763;28;20023;-74
2023/07/28 01:52:01;;;;;;;4.40;3.53;;;;;;;-140.66;100.00;55571.53;5102093;28;20088;-75
2023/07/28 01:54:47;;;;;;;3.88;3.45;;;;;;;-140.66;100.00;55571.53;5116872;28;20055;-75
2023/07/28 01:57:33;;;;;;;4.05;3.50;;;;;;;-140.66;100.00;55571.53;5116901;28;20038;-75
2023/07/28 02:00:19;;;;;;;6.30;3.75;;;;;;;-140.66;100.00;55571.53;5101705;28;20028;-74
2023/07/28 02:03:05;;;;;;;5.53;3.53;;;;;;;-140.66;100.00;55571.53;5101284;28;20020;-75
2023/07/28 02:05:52;;;;;;;4.75;3.83;;;;;;;-140.66;100.00;55571.53;5100558;28;20364;-74
2023/07/28 02:08:38;;;;;;;5.60;3.50;;;;;;;-140.66;100.00;55571.53;5116453;28;20028;-75
2023/07/28 02:11:23;;;;;;;5.13;3.80;;;;;;;-140.66;100.00;55571.53;5115553;28;20063;-75
2023/07/28 02:14:09;;;;;;;6.97;3.60;;;;;;;-140.66;100.00;55571.53;5116018;28;20106;-75
2023/07/28 02:16:55;;;;;;;4.15;3.40;;;;;;;-140.66;100.00;55571.53;5116135;28;20031;-76
2023/07/28 02:19:41;;;;;;;5.38;3.22;;;;;;;-140.66;100.00;55571.53;5114950;28;20048;-75
2023/07/28 02:22:27;;;;;;;5.35;3.28;;;;;;;-140.66;100.00;55571.53;5117273;28;20024;-75
2023/07/28 02:25:13;;;;;;;6.28;3.75;;;;;;;-140.66;100.00;55571.53;5115005;28;20027;-76
2023/07/28 02:27:59;;;;;;;5.05;3.35;;;;;;;-140.66;100.00;55571.53;5116000;28;20023;-76
2023/07/28 02:30:45;;;;;;;4.15;3.22;;;;;;;-140.66;100.00;55571.53;5115478;28;20054;-75
2023/07/28 02:33:32;;;;;;;5.65;3.45;;;;;;;-140.66;100.00;55571.53;5126216;28;20024;-75
2023/07/28 02:36:18;;;;;;;4.57;3.40;;;;;;;-140.66;100.00;55571.53;5119409;28;20034;-75
2023/07/28 02:39:03;;;;;;;6.80;3.35;;;;;;;-140.66;100.00;55571.53;5115491;28;20036;-74
2023/07/28 02:41:49;;;;;;;7.07;3.75;;;;;;;-140.66;100.00;55571.53;5116972;28;20020;-76
2023/07/28 02:44:35;;;;;;;4.70;3.28;;;;;;;-140.66;100.00;55571.53;5114981;28;20035;-76
2023/07/28 02:47:21;;;;;;;5.65;3.40;;;;;;;-140.66;100.00;55571.53;5115139;28;20454;-74
2023/07/28 02:50:07;;;;;;;5.55;3.50;;;;;;;-140.66;100.00;55571.53;5115498;28;20328;-74
2023/07/28 02:52:52;;;;;;;4.88;3.40;;;;;;;-140.66;100.00;55571.53;5115990;28;20023;-74
2023/07/28 02:55:45;;;;;;;4.35;3.08;;;;;;;-140.66;100.00;55571.53;5114950;28;20340;-76
2023/07/28 02:58:31;;;;;;;4.75;3.80;;;;;;;-140.66;100.00;55571.53;5116487;28;20039;-74
2023/07/28 03:01:17;;;;;;;6.38;3.33;;;;;;;-140.66;100.00;55571.53;5101460;28;20023;-75
2023/07/28 03:04:03;;;;;;;7.97;3.75;;;;;;;-140.66;100.00;55571.53;5115137;28;20137;-76
2023/07/28 03:06:49;;;;;;;5.88;3.72;;;;;;;-140.66;100.00;55571.53;5114880;28;20467;-75
2023/07/28 03:09:34;;;;;;;5.03;3.80;;;;;;;-140.66;100.00;55571.53;5114477;28;20023;-75
2023/07/28 03:12:20;;;;;;;7.35;3.88;;;;;;;-140.66;100.00;55571.53;5116142;28;20027;-75
2023/07/28 03:15:07;;;;;;;8.38;3.30;;;;;;;-140.66;100.00;55571.53;5114441;28;20031;-75
2023/07/28 03:17:54;;;;;;;6.80;3.20;;;;;;;-140.66;100.00;55571.53;5116006;28;20032;-75
2023/07/28 03:20:40;;;;;;;7.72;3.33;;;;;;;-140.66;100.00;55571.53;5099944;28;20102;-74
2023/07/28 03:23:25;;;;;;;5.35;3.42;;;;;;;-140.66;100.00;55571.53;5099250;28;20031;-74
2023/07/28 03:26:11;;;;;;;7.63;3.78;;;;;;;-140.66;100.00;55571.53;5114808;28;20353;-75
2023/07/28 03:28:57;;;;;;;7.15;3.60;;;;;;;-140.66;100.00;55571.53;5113723;28;20019;-75
2023/07/28 03:31:43;;;;;;;6.20;3.40;;;;;;;-140.66;100.00;55571.53;5099695;28;20487;-75
2023/07/28 03:34:28;;;;;;;5.45;3.00;;;;;;;-140.66;100.00;55571.53;5113483;28;20107;-75
2023/07/28 03:37:14;;;;;;;6.80;3.25;;;;;;;-140.66;100.00;55571.53;5114205;28;20038;-75
2023/07/28 03:40:00;;;;;;;6.15;3.20;;;;;;;-140.66;100.00;55571.53;5098643;28;20028;-74
2023/07/28 03:42:46;;;;;;;3.83;3.28;;;;;;;-140.66;100.00;55571.53;5113837;28;20106;-77
2023/07/28 03:45:32;;;;;;;5.07;3.67;;;;;;;-140.66;100.00;55571.53;5114131;28;20028;-76
2023/07/28 03:48:18;;;;;;;5.15;3.38;;;;;;;-140.66;100.00;55571.53;5114729;28;20023;-75
2023/07/28 03:51:04;;;;;;;4.72;3.88;;;;;;;-140.66;100.00;55571.53;5100981;28;20321;-75
2023/07/28 03:53:49;;;;;;;7.40;3.03;;;;;;;-140.66;100.00;55571.53;5114480;28;20440;-74
2023/07/28 03:56:35;;;;;;;6.15;3.30;;;;;;;-140.66;100.00;55571.53;5115844;28;20032;-75
2023/07/28 03:59:21;;;;;;;5.57;3.47;;;;;;;-140.66;100.00;55571.53;5115324;28;20085;-75
2023/07/28 04:02:06;;;;;;;5.40;3.78;;;;;;;-140.66;100.00;55571.53;5099712;28;20019;-76
2023/07/28 04:04:56;;;;;;;8.52;3.85;;;;;;;-140.66;100.00;55571.53;5098250;28;20463;-75
2023/07/28 04:07:42;;;;;;;5.45;3.53;;;;;;;-140.66;100.00;55571.53;5099334;28;20042;-74
2023/07/28 04:10:28;;;;;;;7.38;5.18;;;;;;;-140.66;100.00;55571.53;5098720;28;20114;-76
2023/07/28 04:13:14;;;;;;;7.10;4.18;;;;;;;-140.66;100.00;55571.53;5099300;28;20485;-75
2023/07/28 04:16:00;;;;;;;5.97;3.75;;;;;;;-140.66;100.00;55571.53;5113804;28;20446;-75
2023/07/28 04:18:45;;;;;;;10.32;3.65;;;;;;;-140.66;100.00;55571.53;5113546;28;20121;-75
2023/07/28 04:21:31;;;;;;;6.18;3.65;;;;;;;-140.66;100.00;55571.53;5098854;28;20429;-76
2023/07/28 04:24:17;;;;;;;7.00;3.75;;;;;;;-140.66;100.00;55571.53;5099057;28;20031;-74
2023/07/28 04:27:03;;;;;;;4.95;3.50;;;;;;;-140.66;100.00;55571.53;5100143;28;20462;-74
2023/07/28 04:29:49;;;;;;;7.55;4.13;;;;;;;-140.66;100.00;55571.53;5103445;28;20038;-75
2023/07/28 04:32:34;;;;;;;9.88;4.20;;;;;;;-140.66;100.00;55571.53;5118116;28;20359;-74
2023/07/28 04:35:20;;;;;;;9.30;4.28;;;;;;;-140.66;100.00;55571.53;5116631;28;20020;-74
2023/07/28 04:38:06;;;;;;;8.50;4.03;;;;;;;-140.66;100.00;55571.53;5118292;28;20015;-74
2023/07/28 04:40:52;;;;;;;9.07;4.97;;;;;;;-140.66;100.00;55571.53;5116960;28;20039;-76
2023/07/28 04:43:37;;;;;;;7.97;4.78;;;;;;;-140.66;100.00;55571.53;5118023;28;20138;-75
2023/07/28 04:46:23;;;;;;;7.82;4.65;;;;;;;-140.66;100.00;55571.53;5117987;28;20046;-74
2023/07/28 04:49:09;;;;;;;11.77;6.15;;;;;;;-140.66;100.00;55571.53;5117428;28;20024;-75
2023/07/28 04:51:55;;;;;;;11.75;5.28;;;;;;;-140.66;100.00;55571.53;5117929;28;20467;-75
2023/07/28 04:54:40;;;;;;;14.75;5.57;;;;;;;-140.66;100.00;55571.53;5102922;28;20448;-75
2023/07/28 04:57:26;;;;;;;12.95;4.13;;;;;;;-140.66;100.00;55571.53;5117827;28;20027;-75
2023/07/28 05:00:12;;;;;;;8.45;3.58;;;;;;;-140.66;100.00;55571.53;5116694;28;20038;-75
2023/07/28 05:02:58;;;;;;;11.50;3.97;;;;;;;-140.66;100.00;55571.53;5117949;28;20024;-75
2023/07/28 05:05:44;;;;;;;7.85;3.78;;;;;;;-140.66;100.00;55571.53;5118469;28;20041;-75
2023/07/28 05:08:30;;;;;;;8.45;4.10;;;;;;;-140.66;100.00;55571.53;5117355;28;20027;-75
2023/07/28 05:11:16;;;;;;;9.30;3.92;;;;;;;-140.66;100.00;55571.53;5116965;28;20019;-74
2023/07/28 05:14:02;;;;;;;12.15;4.07;;;;;;;-140.66;100.00;55571.53;5117830;28;20435;-74
2023/07/28 05:16:48;;;;;;;8.38;3.83;;;;;;;-140.66;100.00;55571.53;5102370;28;20047;-76
2023/07/28 05:19:34;;;;;;;8.90;3.58;;;;;;;-140.66;100.00;55571.53;5115975;28;20046;-75
2023/07/28 05:22:19;;;;;;;7.05;3.70;;;;;;;-140.66;100.00;55571.53;5116982;28;20085;-75
2023/07/28 05:25:07;;;;;;;5.82;3.50;;;;;;;-140.66;100.00;55571.53;5116664;28;20038;-75
2023/07/28 05:27:52;;;;;;;5.40;3.85;;;;;;;-140.66;100.00;55571.53;5117214;28;20354;-76
2023/07/28 05:30:38;;;;;;;6.20;3.30;;;;;;;-140.66;100.00;55571.53;5117306;28;20028;-75
2023/07/28 05:33:24;;;;;;;5.75;3.40;;;;;;;-140.66;100.00;55571.53;5116942;28;20451;-74
2023/07/28 05:36:10;;;;;;;7.03;3.45;;;;;;;-140.66;100.00;55571.53;5117298;28;20432;-75
2023/07/28 05:38:57;;;;;;;3.65;3.35;;;;;;;-140.66;100.00;55571.53;5116798;28;20463;-75
2023/07/28 05:41:43;;;;;;;5.30;3.42;;;;;;;-140.66;100.00;55571.53;5117066;28;20035;-75
2023/07/28 05:44:29;;;;;;;5.72;3.20;;;;;;;-140.66;100.00;55571.53;5116879;28;20028;-75
2023/07/28 05:47:15;;;;;;;5.53;3.40;;;;;;;-140.66;100.00;55571.53;5117372;28;20542;-76
2023/07/28 05:50:00;;;;;;;11.32;3.70;;;;;;;-140.66;100.00;55571.53;5101834;28;20042;-76
2023/07/28 05:52:46;;;;;;;8.32;3.60;;;;;;;-140.66;100.00;55571.53;5116774;28;20109;-75
2023/07/28 05:55:32;;;;;;;5.88;3.85;;;;;;;-140.66;100.00;55571.53;5116415;28;20051;-76
2023/07/28 05:58:18;;;;;;;6.10;3.70;;;;;;;-140.66;100.00;55571.53;5116592;28;20031;-76
2023/07/28 06:01:04;;;;;;;5.28;3.65;;;;;;;-140.66;100.00;55571.53;5116060;28;20027;-76
2023/07/28 06:03:51;;;;;;;7.32;3.60;;;;;;;-140.66;100.00;55571.53;5117132;28;20448;-76
2023/07/28 06:06:37;;;;;;;5.88;4.03;;;;;;;-140.66;100.00;55571.53;5101543;28;20028;-75
2023/07/28 06:09:23;;;;;;;5.47;3.83;;;;;;;-140.66;100.00;55571.53;5115735;28;20031;-75
2023/07/28 06:12:09;;;;;;;7.07;3.60;;;;;;;-140.66;100.00;55571.53;5101834;28;20062;-75
2023/07/28 06:14:54;;;;;;;7.53;3.80;;;;;;;-140.66;100.00;55571.53;5114958;28;20439;-76
2023/07/28 06:17:40;;;;;;;7.85;3.70;;;;;;;-140.66;100.00;55571.53;5114689;28;20065;-75
2023/07/28 06:20:26;;;;;;;4.30;3.47;;;;;;;-140.66;100.00;55571.53;5115670;28;20383;-75
2023/07/28 06:23:11;;;;;;;6.97;3.92;;;;;;;-140.66;100.00;55571.53;5115834;28;20360;-76
2023/07/28 06:25:57;;;;;;;6.47;3.50;;;;;;;-140.66;100.00;55571.53;5115400;28;20461;-75
2023/07/28 06:28:43;;;;;;;10.18;3.65;;;;;;;-140.66;100.00;55571.53;5115389;28;20032;-74
2023/07/28 06:31:30;;;;;;;8.98;3.58;;;;;;;-140.66;100.00;55571.53;5099913;28;20488;-77
2023/07/28 06:34:16;;;;;;;11.38;4.18;;;;;;;-140.66;100.00;55571.53;5115671;28;20019;-75
2023/07/28 06:37:02;;;;;;;6.95;3.55;;;;;;;-140.66;100.00;55571.53;5100970;28;20042;-75
2023/07/28 06:39:49;;;;;;;7.82;4.00;;;;;;;-140.66;100.00;55571.53;5115152;28;20035;-76
2023/07/28 06:42:36;;;;;;;4.80;3.67;;;;;;;-140.66;100.00;55571.53;5115010;28;20028;-75
2023/07/28 06:45:22;;;;;;;11.02;3.80;;;;;;;-140.66;100.00;55571.53;5100484;28;20084;-75
2023/07/28 06:48:08;;;;;;;10.23;3.70;;;;;;;-140.66;100.00;55571.53;5100596;28;20028;-76
2023/07/28 06:50:54;;;;;;;10.40;4.03;;;;;;;-140.66;100.00;55571.53;5114862;28;20039;-76
2023/07/28 06:53:39;;;;;;;5.53;3.28;;;;;;;-140.66;100.00;55571.53;5115392;28;20019;-75
2023/07/28 06:56:25;;;;;;;6.35;3.28;;;;;;;-140.66;100.00;55571.53;5116237;28;20034;-75
2023/07/28 06:59:11;;;;;;;6.15;3.58;;;;;;;-140.66;100.00;55571.53;5114901;28;20107;-75
2023/07/28 07:01:57;;;;;;;6.05;3.22;;;;;;;-140.66;100.00;55571.53;5114731;28;20444;-75
2023/07/28 07:04:43;;;;;;;5.03;3.40;;;;;;;-140.66;100.00;55571.53;5113928;28;20051;-75
2023/07/28 07:07:29;;;;;;;5.32;3.00;;;;;;;-140.66;100.00;55571.53;5115155;28;20432;-75
2023/07/28 07:10:14;;;;;;;6.32;3.03;;;;;;;-140.66;100.00;55571.53;5114031;28;20099;-75
2023/07/28 07:13:00;;;;;;;8.15;2.75;;;;;;;-140.66;100.00;55571.53;5099724;28;20524;-75
2023/07/28 07:15:46;;;;;;;5.85;3.33;;;;;;;-140.66;100.00;55571.53;5100281;28;20023;-76
2023/07/28 07:18:32;;;;;;;4.25;3.03;;;;;;;-140.66;100.00;55571.53;5114319;28;20023;-75
2023/07/28 07:21:18;;;;;;;5.68;2.90;;;;;;;-140.66;100.00;55571.53;5114654;28;20043;-75
2023/07/28 07:24:04;;;;;;;3.70;2.70;;;;;;;-140.66;100.00;55571.53;5100791;28;20405;-76
2023/07/28 07:26:50;;;;;;;3.42;3.00;;;;;;;-140.66;100.00;55571.53;5100963;28;20032;-75
2023/07/28 07:29:38;;;;;;;4.18;3.40;;;;;;;-140.66;100.00;55571.53;5113841;28;20031;-75
2023/07/28 07:32:24;;;;;;;4.20;2.58;;;;;;;-140.66;100.00;55571.53;5114448;28;20080;-77
2023/07/28 07:35:10;;;;;;;5.00;2.80;;;;;;;-140.66;100.00;55571.53;5114830;28;20016;-73
2023/07/28 07:37:55;;;;;;;3.10;2.80;;;;;;;-140.66;100.00;55571.53;5114449;28;20031;-76
2023/07/28 07:40:42;;;;;;;4.95;2.47;;;;;;;-140.66;100.00;55571.53;5114453;28;20037;-75
2023/07/28 07:43:27;;;;;;;3.72;2.55;;;;;;;-140.66;100.00;55571.53;5099854;28;20027;-75
2023/07/28 07:46:15;;;;;;;8.20;2.80;;;;;;;-140.66;100.00;55571.53;5114002;28;20059;-76
2023/07/28 07:49:00;;;;;;;3.63;2.97;;;;;;;-140.66;100.00;55571.53;5114431;28;20372;-76
2023/07/28 07:51:46;;;;;;;7.18;3.00;;;;;;;-140.66;100.00;55571.53;5115004;28;20489;-76
2023/07/28 07:54:32;;;;;;;13.73;3.55;;;;;;;-140.66;100.00;55571.53;5114348;28;20043;-77
2023/07/28 07:57:18;;;;;;;6.10;2.88;;;;;;;-140.66;100.00;55571.53;5099255;28;20093;-76
2023/07/28 08:00:04;;;;;;;6.82;2.60;;;;;;;-140.66;100.00;55571.53;5114621;28;20030;-76
2023/07/28 08:02:50;;;;;;;6.70;2.72;;;;;;;-140.66;100.00;55571.53;5113480;28;20028;-76
2023/07/28 08:05:37;;;;;;;8.98;2.78;;;;;;;-140.66;100.00;55571.53;5114550;28;20027;-77
2023/07/28 08:08:23;;;;;;;3.13;2.20;;;;;;;-140.66;100.00;55571.53;5099134;28;20375;-75
2023/07/28 08:11:08;;;;;;;3.50;2.50;;;;;;;-140.66;100.00;55571.53;5112898;28;20031;-76
2023/07/28 08:13:55;;;;;;;3.88;2.40;;;;;;;-140.66;100.00;55571.53;5114616;28;20455;-76
2023/07/28 08:16:40;;;;;;;4.28;2.40;;;;;;;-140.66;100.00;55571.53;5113915;28;20088;-77
2023/07/28 08:19:26;;;;;;;6.53;2.63;;;;;;;-140.66;100.00;55571.53;5114547;28;20019;-75
2023/07/28 08:22:12;;;;;;;4.45;2.13;;;;;;;-140.66;100.00;55571.53;5114280;28;20118;-76
2023/07/28 08:24:58;;;;;;;5.47;2.10;;;;;;;-140.66;100.00;55571.53;5098987;28;20015;-76
2023/07/28 08:27:43;;;;;;;3.45;2.50;;;;;;;-140.66;100.00;55571.53;5100534;28;20042;-75
2023/07/28 08:30:29;;;;;;;2.75;2.30;;;;;;;-140.66;100.00;55571.53;5113512;28;20023;-76
2023/07/28 08:33:15;;;;;;;2.63;2.00;;;;;;;-140.66;100.00;55571.53;5114287;28;20412;-76
2023/07/28 08:36:01;;;;;;;4.10;2.30;;;;;;;-140.66;100.00;55571.53;5098355;28;20521;-74
2023/07/28 08:38:47;;;;;;;4.03;2.70;;;;;;;-140.66;100.00;55571.53;5113624;28;20084;-76
2023/07/28 08:41:32;;;;;;;3.33;2.13;;;;;;;-140.66;100.00;55571.53;5113989;28;20038;-76
2023/07/28 08:44:19;;;;;;;4.82;2.08;;;;;;;-140.66;100.00;55571.53;5099093;28;20055;-75
2023/07/28 08:47:05;;;;;;;3.53;2.28;;;;;;;-140.66;100.00;55571.53;5113476;28;20039;-77
2023/07/28 08:49:50;;;;;;;3.60;2.45;;;;;;;-140.66;100.00;55571.53;5112049;28;20019;-75
2023/07/28 08:52:36;;;;;;;2.40;1.88;;;;;;;-140.66;100.00;55571.53;5114045;28;20031;-77
2023/07/28 08:55:22;;;;;;;2.40;2.00;;;;;;;-140.66;100.00;55571.53;5114245;28;20057;-77
2023/07/28 08:58:19;;;;;;;3.92;2.10;;;;;;;-140.66;100.00;55571.53;5113730;28;20023;-77
2023/07/28 09:01:05;;;;;;;11.32;2.22;;;;;;;-140.66;100.00;55571.53;5114196;28;20027;-77
2023/07/28 09:03:51;;;;;;;9.60;2.38;;;;;;;-140.66;100.00;55571.53;5113936;28;20015;-77
2023/07/28 09:06:36;;;;;;;11.27;2.75;;;;;;;-140.66;100.00;55571.53;5113560;28;20054;-76
2023/07/28 09:09:23;;;;;;;15.73;2.70;;;;;;;-140.66;100.00;55571.53;5113585;28;20028;-78
2023/07/28 09:12:09;;;;;;;9.50;2.15;;;;;;;-140.66;100.00;55571.53;5113048;28;20030;-77
2023/07/28 09:14:57;;;;;;;4.82;1.98;;;;;;;-140.66;100.00;55571.53;5116432;28;20035;-76
2023/07/28 09:17:44;;;;;;;2.05;1.80;;;;;;;-140.66;100.00;55571.53;5117883;28;20355;-75
2023/07/28 09:20:35;;;;;;;9.90;2.22;;;;;;;-140.66;100.00;55571.53;5115985;28;20051;-77
2023/07/28 09:23:29;;;;;;;5.22;2.10;;;;;;;-140.66;100.00;55571.53;5116933;28;20027;-78
2023/07/28 09:26:18;;;;;;;4.45;1.95;;;;;;;-140.66;100.00;55571.53;5118266;28;20384;-76
2023/07/28 09:29:34;;;;;;;5.40;2.00;;;;;;;-140.66;100.00;55571.53;5117055;28;20051;-75
2023/07/28 09:32:29;;;;;;;3.38;1.70;;;;;;;-140.66;100.00;55571.53;5110633;28;20483;-77
2023/07/28 09:35:16;;;;;;;3.28;1.80;;;;;;;-140.66;100.00;55571.53;5101579;28;20020;-76
2023/07/28 09:38:02;;;;;;;3.97;1.90;;;;;;;-140.66;100.00;55571.53;5101817;28;20023;-76
2023/07/28 09:40:48;;;;;;;2.17;1.80;;;;;;;-140.66;100.00;55571.53;5120868;28;20553;-76
2023/07/28 09:43:39;;;;;;;5.13;1.77;;;;;;;-140.66;100.00;55571.53;5120914;28;20020;-77
2023/07/28 09:46:29;;;;;;;3.17;1.60;;;;;;;-140.66;100.00;55571.53;5101631;28;20019;-76
2023/07/28 09:49:20;;;;;;;2.03;1.80;;;;;;;-140.66;100.00;55571.53;5101933;28;20029;-78
2023/07/28 09:52:08;;;;;;;2.40;1.52;;;;;;;-140.66;100.00;55571.53;5117003;28;20027;-77
2023/07/28 09:54:58;;;;;;;2.67;1.48;;;;;;;-140.66;100.00;55571.53;5116449;28;20117;-77
2023/07/28 09:57:53;;;;;;;2.95;2.00;;;;;;;-140.66;100.00;55571.53;5118224;28;20352;-76
2023/07/28 10:00:39;;;;;;;1.70;1.60;;;;;;;-140.66;100.00;55571.53;5108452;28;20035;-77
2023/07/28 10:03:26;;;;;;;2.53;1.67;;;;;;;-140.66;100.00;55571.53;5120174;28;20070;-77
2023/07/28 10:06:28;;;;;;;2.20;1.60;;;;;;;-140.66;100.00;55571.53;5101463;28;20106;-77
2023/07/28 10:09:16;;;;;;;5.00;1.65;;;;;;;-140.66;100.00;55571.53;5118273;28;20031;-76
2023/07/28 10:12:03;;;;;;;4.20;1.83;;;;;;;-140.66;100.00;55571.53;5116379;28;20065;-75
2023/07/28 10:15:00;;;;;;;1.65;1.55;;;;;;;-140.66;100.00;55571.53;5102162;28;20497;-76
2023/07/28 10:17:57;;;;;;;3.25;1.50;;;;;;;-140.66;100.00;55571.53;5115758;28;20098;-76
2023/07/28 10:20:46;;;;;;;3.30;2.00;;;;;;;-140.66;100.00;55571.53;5101723;28;20490;-76
2023/07/28 10:23:36;;;;;;;4.15;2.10;;;;;;;-140.66;100.00;55571.53;5116455;28;20036;-76
2023/07/28 10:26:35;;;;;;;4.93;1.65;;;;;;;-140.66;100.00;55571.53;5116183;28;20024;-79
2023/07/28 10:29:21;;;;;;;2.83;1.70;;;;;;;-140.66;100.00;55571.53;5116893;28;20098;-75
2023/07/28 10:32:06;;;;;;;4.38;1.85;;;;;;;-140.66;100.00;55571.53;5100429;28;20328;-75
2023/07/28 10:35:06;;;;;;;8.88;1.70;;;;;;;-140.66;100.00;55571.53;5102673;28;20278;-76
2023/07/28 10:37:56;;;;;;;4.88;1.77;;;;;;;-140.66;100.00;55571.53;5116568;28;20027;-76
2023/07/28 10:40:42;;;;;;;2.53;1.70;;;;;;;-140.66;100.00;55571.53;5101514;28;20435;-76
2023/07/28 10:43:28;;;;;;;3.05;1.52;;;;;;;-140.66;100.00;55571.53;5116389;28;20093;-77
2023/07/28 10:46:17;;;;;;;2.22;1.70;;;;;;;-140.66;100.00;55571.53;5101069;28;20024;-76
2023/07/28 10:49:05;;;;;;;4.00;1.70;;;;;;;-140.66;100.00;55571.53;5115974;28;20023;-76
2023/07/28 10:51:51;;;;;;;10.00;2.30;;;;;;;-140.66;100.00;55571.53;5114904;28;20062;-77
2023/07/28 10:54:36;;;;;;;2.03;1.55;;;;;;;-140.66;100.00;55571.53;5100975;28;20020;-76
2023/07/28 10:57:26;;;;;;;1.80;1.52;;;;;;;-140.66;100.00;55571.53;5115720;28;20085;-77
2023/07/28 11:00:14;;;;;;;7.80;1.90;;;;;;;-140.66;100.00;55571.53;5100624;28;20029;-76
2023/07/28 11:03:00;;;;;;;9.40;2.00;;;;;;;-140.66;100.00;55571.53;5100481;28;20042;-76
2023/07/28 11:05:48;;;;;;;4.90;1.50;;;;;;;-140.66;100.00;55571.53;5114856;28;20122;-76
2023/07/28 11:08:35;;;;;;;3.28;1.75;;;;;;;-140.66;100.00;55571.53;5116095;28;20027;-76
2023/07/28 11:11:20;;;;;;;9.48;2.33;;;;;;;-140.66;100.00;55571.53;5115447;28;20054;-76
2023/07/28 11:14:07;;;;;;;7.03;2.05;;;;;;;-140.66;100.00;55571.53;5115056;28;20348;-77
2023/07/28 11:16:54;;;;;;;3.80;2.13;;;;;;;-140.66;100.00;55571.53;5101463;28;20114;-76
2023/07/28 11:19:39;;;;;;;1.60;1.48;;;;;;;-140.66;100.00;55571.53;5103676;28;20349;-77
2023/07/28 11:22:25;;;;;;;2.50;1.67;;;;;;;-140.66;100.00;55571.53;5123451;28;20016;-78
2023/07/28 11:25:12;;;;;;;3.35;1.67;;;;;;;-140.66;100.00;55571.53;5118098;28;20459;-76
2023/07/28 11:28:00;;;;;;;1.75;1.50;;;;;;;-140.66;100.00;55571.53;5115260;28;20084;-76
2023/07/28 11:30:47;;;;;;;4.22;1.75;;;;;;;-140.66;100.00;55571.53;5099333;28;20023;-77
2023/07/28 11:33:33;;;;;;;2.75;1.58;;;;;;;-140.66;100.00;55571.53;5115322;28;20031;-76
2023/07/28 11:36:31;;;;;;;7.13;1.70;;;;;;;-140.66;100.00;55571.53;5115710;28;20375;-78
2023/07/28 11:39:17;;;;;;;4.32;1.75;;;;;;;-140.66;100.00;55571.53;5115282;28;20027;-77
2023/07/28 11:42:12;;;;;;;3.75;1.80;;;;;;;-140.66;100.00;55571.53;5100754;28;20042;-78
2023/07/28 11:44:58;;;;;;;2.15;1.77;;;;;;;-140.66;100.00;55571.53;5114955;28;20020;-77
2023/07/28 11:48:04;;;;;;;2.38;1.70;;;;;;;-140.66;100.00;55571.53;5115667;28;20032;-76
2023/07/28 11:50:53;;;;;;;2.35;1.60;;;;;;;-140.66;100.00;55571.53;5115010;28;20034;-76
2023/07/28 11:53:39;;;;;;;2.72;1.50;;;;;;;-140.66;100.00;55571.53;5115486;28;20032;-77
2023/07/28 11:56:29;;;;;;;4.50;1.73;;;;;;;-140.66;100.00;55571.53;5114861;28;20352;-76
2023/07/28 11:59:17;;;;;;;5.78;2.17;;;;;;;-140.66;100.00;55571.53;5101565;28;20077;-77
2023/07/28 12:02:10;;;;;;;2.85;1.75;;;;;;;-140.66;100.00;55571.53;5116373;28;20516;-76
2023/07/28 12:04:58;;;;;;;4.10;1.75;;;;;;;-140.66;100.00;55571.53;5115841;28;20073;-76
2023/07/28 12:07:48;;;;;;;4.13;2.40;;;;;;;-140.66;100.00;55571.53;5114870;28;20032;-77
2023/07/28 12:10:34;;;;;;;2.85;1.80;;;;;;;-140.66;100.00;55571.53;5115352;28;20066;-77
2023/07/28 12:13:23;;;;;;;2.65;1.55;;;;;;;-140.66;100.00;55571.53;5114963;28;20035;-76
2023/07/28 12:16:30;;;;;;;6.55;1.85;;;;;;;-140.66;100.00;55571.53;5101667;28;20016;-75
2023/07/28 12:19:16;;;;;;;3.22;1.67;;;;;;;-140.66;100.00;55571.53;5119080;28;20425;-78
2023/07/28 12:22:02;;;;;;;2.35;1.60;;;;;;;-140.66;100.00;55571.53;5100626;28;20384;-76
2023/07/28 12:24:48;;;;;;;1.90;1.60;;;;;;;-140.66;100.00;55571.53;5116359;28;20435;-76
2023/07/28 12:27:34;;;;;;;5.07;1.60;;;;;;;-140.66;100.00;55571.53;5116617;28;20444;-75
2023/07/28 12:30:26;;;;;;;1.60;1.50;;;;;;;-140.66;100.00;55571.53;5114568;28;20034;-76
2023/07/28 12:33:11;;;;;;;2.70;1.70;;;;;;;-140.66;100.00;55571.53;5114973;28;20042;-76
2023/07/28 12:35:57;;;;;;;3.58;1.80;;;;;;;-140.66;100.00;55571.53;5101079;28;20030;-76
2023/07/28 12:38:43;;;;;;;4.70;1.77;;;;;;;-140.66;100.00;55571.53;5117484;28;20034;-75